WetterOnline ( https://www.wetteronline.ch )

Wetter aktuell Paderborn

Aktuelles Wetter: Bad Lippspringe (158m)

6-stündlich | Neueste Meldungen
Ortszeit Temperatur Wetter
Do, 06.08. 14:00 29.4° C wolkenlos
Do, 06.08. 8:00 19.8° C wolkenlos
Do, 06.08. 2:00 19.2° C leicht bewölkt
Mi, 05.08. 20:00 28.8° C wolkenlos
Mi, 05.08. 14:00 26.6° C fast wolkenlos
Mi, 05.08. 8:00 15.1° C leicht bewölkt
Mi, 05.08. 2:00 9.5° C leicht bewölkt
Di, 04.08. 20:00 20.9° C wolkenlos
Ortszeit Temperatur Wetter
Do, 06.08. 18:30 29.6° C fast wolkenlos
Do, 06.08. 18:20 29.6° C fast wolkenlos
Do, 06.08. 18:10 30.0° C wolkenlos
Do, 06.08. 18:00 29.8° C fast wolkenlos
Do, 06.08. 17:50 29.8° C fast wolkenlos
Do, 06.08. 17:40 30.1° C leicht bewölkt
Do, 06.08. 17:30 30.3° C leicht bewölkt
Do, 06.08. 17:00 30.3° C wolkenlos
Do, 06.08. 16:30 30.2° C fast wolkenlos
Do, 06.08. 16:00 30.4° C fast wolkenlos
Do, 06.08. 15:30 30.2° C fast wolkenlos
Do, 06.08. 15:00 29.9° C leicht bewölkt
Ortszeit Relative Feuchte Sichtweite
Do, 06.08. 14:00 24% 45 km
Do, 06.08. 8:00 61% >70 km
Do, 06.08. 2:00 50% 65 km
Mi, 05.08. 20:00 25% 60 km
Mi, 05.08. 14:00 26% >70 km
Mi, 05.08. 8:00 73% 50 km
Mi, 05.08. 2:00 93% 50 km
Di, 04.08. 20:00 42% >70 km
Ortszeit Relative Feuchte Sichtweite
Do, 06.08. 18:30 24% 45 km
Do, 06.08. 18:20 24% -
Do, 06.08. 18:10 23% -
Do, 06.08. 18:00 23% >70 km
Do, 06.08. 17:50 23% -
Do, 06.08. 17:40 23% -
Do, 06.08. 17:30 24% 65 km
Do, 06.08. 17:00 24% 65 km
Do, 06.08. 16:30 24% 55 km
Do, 06.08. 16:00 23% >70 km
Do, 06.08. 15:30 25% 65 km
Do, 06.08. 15:00 25% >70 km
Ortszeit Niederschlagsmenge Niederschlagsart
Do, 06.08. 14:00 0.0 l/m2 in 6 Std. -
Do, 06.08. 8:00 0.0 l/m2 in 12 Std. -
Do, 06.08. 2:00 0.0 l/m2 in 6 Std. -
Mi, 05.08. 20:00 0.0 l/m2 in 12 Std. -
Mi, 05.08. 14:00 0.0 l/m2 in 6 Std. -
Mi, 05.08. 8:00 0.0 l/m2 in 12 Std. -
Mi, 05.08. 2:00 0.0 l/m2 in 6 Std. -
Di, 04.08. 20:00 0.0 l/m2 in 12 Std. -
Ortszeit Niederschlagsmenge Niederschlagsart
Do, 06.08. 18:30 0.0 l/m2 in 1 Std. -
Do, 06.08. 18:20 keine Meldung -
Do, 06.08. 18:10 keine Meldung -
Do, 06.08. 18:00 0.0 l/m2 in 1 Std. -
Do, 06.08. 17:50 keine Meldung -
Do, 06.08. 17:40 keine Meldung -
Do, 06.08. 17:30 0.0 l/m2 in 1 Std. -
Do, 06.08. 17:00 0.0 l/m2 in 1 Std. -
Do, 06.08. 16:30 0.0 l/m2 in 1 Std. -
Do, 06.08. 16:00 0.0 l/m2 in 1 Std. -
Do, 06.08. 15:30 0.0 l/m2 in 1 Std. -
Do, 06.08. 15:00 0.0 l/m2 in 1 Std. -
Ortszeit Stärke Spitze Richtung
km/h Bft. km/h Grad Sektor
Do, 06.08. 14:00 11 2 29 150° SO
Do, 06.08. 8:00 0 0 11 - -
Do, 06.08. 2:00 9 2 13 110° O
Mi, 05.08. 20:00 4 1 25 240° SW
Mi, 05.08. 14:00 11 2 25 240° SW
Mi, 05.08. 8:00 0 0 7 - -
Mi, 05.08. 2:00 4 1 14 30° NO
Di, 04.08. 20:00 7 2 31 300° NW
Ortszeit Stärke Spitze Richtung
km/h Bft. km/h Grad Sektor
Do, 06.08. 18:30 11 2 22 110° O
Do, 06.08. 18:20 11 2 - 110° O
Do, 06.08. 18:10 9 2 - 140° SO
Do, 06.08. 18:00 13 3 20 120° SO
Do, 06.08. 17:50 13 3 - 120° SO
Do, 06.08. 17:40 11 2 - 130° SO
Do, 06.08. 17:30 7 2 18 150° SO
Do, 06.08. 17:00 11 2 18 130° SO
Do, 06.08. 16:30 11 2 18 120° SO
Do, 06.08. 16:00 9 2 26 170° S
Do, 06.08. 15:30 11 2 25 150° SO
Do, 06.08. 15:00 6 1 24 110° O
Ortszeit Untergrenze Bedeckung Gattung
total tief tief mittel hoch
Do, 06.08. 14:00 - 0/8 0/8 - - -
Do, 06.08. 8:00 - 0/8 0/8 - - -
Do, 06.08. 2:00 9000 m 5/8 0/8 - - -
Mi, 05.08. 20:00 - 0/8 0/8 - - -
Mi, 05.08. 14:00 10500 m 1/8 0/8 - - -
Mi, 05.08. 8:00 9000 m 7/8 0/8 - - -
Mi, 05.08. 2:00 8700 m 4/8 0/8 - - -
Di, 04.08. 20:00 - 0/8 0/8 - - -
Ortszeit Bedeckungsgrad in Achtel und Wolkenuntergrenze
Do, 06.08. 18:30 2(10500m)
Do, 06.08. 18:20 2(10500m)
Do, 06.08. 18:10 keine Wolken
Do, 06.08. 18:00 1(10500m)
Do, 06.08. 17:50 1(10500m)
Do, 06.08. 17:40 3(10500m)
Do, 06.08. 17:30 5(10500m)
Do, 06.08. 17:00 keine Wolken
Do, 06.08. 16:30 2(8100m)
Do, 06.08. 16:00 2(8400m)
Do, 06.08. 15:30 1(8100m) 2(9000m)
Do, 06.08. 15:00 1(8100m) 3(8700m) 3(9000m)
Ortszeit Luftdruck NN (hPa) Tendenz (hPa in 3 Std.)
Do, 06.08. 14:00 1020 - 0,3
Do, 06.08. 8:00 1020 + 1,1
Do, 06.08. 2:00 1018 + 0,5
Mi, 05.08. 20:00 1016 + 0,1
Mi, 05.08. 14:00 1017 - 0,8
Mi, 05.08. 8:00 1018 + 0,5
Mi, 05.08. 2:00 1018 + 0,1
Di, 04.08. 20:00 1016 + 0,4
Ortszeit Luftdruck NN (hPa) Tendenz (hPa in 3 Std.)
Do, 06.08. 18:30 1019 - 0,2
Do, 06.08. 18:20 1019 keine Meldung
Do, 06.08. 18:10 1019 keine Meldung
Do, 06.08. 18:00 1019 - 0,2
Do, 06.08. 17:50 1019 keine Meldung
Do, 06.08. 17:40 1019 keine Meldung
Do, 06.08. 17:30 1019 - 0,5
Do, 06.08. 17:00 1019 - 0,5
Do, 06.08. 16:30 1019 - 0,6
Do, 06.08. 16:00 1019 - 0,7
Do, 06.08. 15:30 1019 - 0,7
Do, 06.08. 15:00 1019 - 0,7
Ortszeit Schneehöhe (cm)
Do, 06.08. 14:00 -
Do, 06.08. 8:00 -
Do, 06.08. 2:00 -
Mi, 05.08. 20:00 -
Mi, 05.08. 14:00 -
Mi, 05.08. 8:00 -
Mi, 05.08. 2:00 -
Di, 04.08. 20:00 -
Ortszeit Schneehöhe (cm)
Do, 06.08. 18:30 -
Do, 06.08. 18:20 -
Do, 06.08. 18:10 -
Do, 06.08. 18:00 -
Do, 06.08. 17:50 -
Do, 06.08. 17:40 -
Do, 06.08. 17:30 -
Do, 06.08. 17:00 -
Do, 06.08. 16:30 -
Do, 06.08. 16:00 -
Do, 06.08. 15:30 -
Do, 06.08. 15:00 -
Link zu dieser Seite / Seite empfehlen

Das Wetter in ...